• Join FlightAware (Why Join?)
  • Login
  • US Flag 
08:00AM EDT


 

Airport Tracker/Info


-or-


 

Live Flight TrackerFlight Track Log ✈ UAL6148 ✈ 22-Sep-2013 ✈ KLNK - KDEN

Flight Track Log - Related Links

Times and Time Zones

All times are in EDT time to prevent confusion due to time zone crossing. See the UAL6148 flight status page for this flight to view local times or setup timezone preferences in your user account.

Time Position Orientation Groundspeed Altitude Reporting Facility
EDT Latitude Longitude Course Direction KTS MPH feet Rate Location/Type
09:20PM 40.8178 -96.7564 259° West 162 186 1,900  Level Minneapolis Center
09:21PM 40.7881 -96.7814 212° Southwest 183 211 2,900 1,080 Climbing Minneapolis Center
09:22PM 40.7814 -96.8439 262° West 194 223 3,800 1,560 Climbing Minneapolis Center
09:22PM 40.7694 -96.8575 221° Southwest 249 287 4,500 2,580 Climbing Minneapolis Center
09:23PM 40.8161 -97.1409 253° West  Level Estimated
09:23PM 40.7728 -96.9400 273° West 246 283 6,500  Level Minneapolis Center
09:24PM 40.8043 -97.2681 257° West  Level Estimated
09:24PM 40.7606 -97.0547 262° West 262 302 8,600  Level Minneapolis Center
09:25PM 40.7857 -97.3938 259° West  Level FlightAware Approximate
09:25PM 40.7500 -97.1567 262° West 275 316 10,300  Level Minneapolis Center
09:26PM 40.7664 -97.5236 259° West  Level FlightAware Approximate
09:26PM 40.7383 -97.2658 262° West 293 337 11,300  Level Minneapolis Center
09:27PM 40.7283 -97.3797 263° West 320 368 12,300 960 Climbing Minneapolis Center
09:28PM 40.7511 -97.5042 284° West 345 397 13,300 1,080 Climbing Minneapolis Center
09:29PM 40.7750 -97.6553 282° West 352 405 14,600 1,080 Climbing Minneapolis Center
09:30PM 40.7967 -97.7822 283° West 353 406 15,600 1,020 Climbing Minneapolis Center
09:31PM 40.8172 -97.9078 282° West 351 404 16,800 1,200 Climbing Minneapolis Center
09:32PM 40.8381 -98.0353 282° West 353 406 18,200 1,200 Climbing Minneapolis Center
09:33PM 40.8586 -98.1622 282° West 353 406 19,300 960 Climbing Minneapolis Center
09:34PM 40.8792 -98.2917 282° West 357 411 20,200 960 Climbing Minneapolis Center
09:35PM 40.9022 -98.4325 282° West 368 423 21,300 1,020 Climbing Minneapolis Center
09:36PM 40.9814 -98.5103 323° Northwest 391 450 22,300 960 Climbing Minneapolis Center
09:37PM 41.0894 -98.4675 17° North 404 465 23,300 960 Climbing Minneapolis Center
09:38PM 41.2114 -98.4186 17° North 408 470 24,400 960 Climbing Minneapolis Center
09:39PM 41.3194 -98.3753 17° North 409 471 25,300 960 Climbing Minneapolis Center
09:40PM 41.4253 -98.3219 21° North 413 475 26,400 960 Climbing Minneapolis Center
09:41PM 41.5056 -98.2092 46° Northeast 417 480 27,300 1,200 Climbing Minneapolis Center
09:42PM 41.5675 -98.0725 59° Northeast 415 478 28,900 1,260 Climbing Minneapolis Center
09:43PM 41.4992 -98.0006 142° Southeast 369 425 29,900 540 Climbing Minneapolis Center
09:44PM 41.4303 -98.0769 220° Southwest 333 383 30,000  Climbing Minneapolis Center
09:45PM 41.4025 -98.2011 253° West 319 367 30,000  Level Minneapolis Center
09:46PM 41.3828 -98.3139 257° West 315 362 30,000  Level Minneapolis Center
09:47PM 41.3792 -98.4275 268° West 316 364 30,000  Level Minneapolis Center
09:48PM 41.4472 -98.4856 327° Northwest 345 397 30,000  Level Minneapolis Center
09:49PM 41.5214 -98.3742 48° Northeast 393 452 30,000  Level Minneapolis Center
09:50PM 41.5458 -98.2300 77° East 399 459 30,000  Level Minneapolis Center
09:51PM 41.5742 -98.0706 77° East 402 463 30,000  Level Minneapolis Center
09:53PM 41.5989 -97.9214 77° East 409 471 30,000  Level Minneapolis Center
09:54PM 41.5278 -97.8322 137° Southeast 377 434 30,000  Level Minneapolis Center
09:55PM 41.4531 -97.8958 213° Southwest 340 391 30,000  Level Minneapolis Center
09:56PM 41.3764 -97.9544 210° Southwest 338 389 30,000  Level Minneapolis Center
09:57PM 41.2667 -97.9556 180° South 348 400 30,000  Level Minneapolis Center
09:58PM 41.1683 -97.9567 180° South 351 404 30,000  Level Minneapolis Center
09:59PM 41.0761 -97.9836 192° South 344 396 30,000  Level Minneapolis Center
10:00PM 41.0158 -98.0744 229° Southwest 329 379 30,000  Level Minneapolis Center
10:01PM 40.9272 -98.1078 196° South 337 388 30,000 -900 Level Minneapolis Center
10:02PM 40.8292 -98.1086 180° South 348 400 28,200 -1,920 Descending Minneapolis Center
10:03PM 40.7539 -98.0203 138° Southeast 388 447 26,200 -2,280 Descending Minneapolis Center
10:04PM 40.7639 -97.8714 85° East 407 468 23,600 -2,940 Descending Minneapolis Center
10:04PM 40.7506 -97.7414 98° East 410 472 21,000 -3,060 Descending Minneapolis Center
10:05PM 40.7758 -97.7236 28° Northeast 408 470 20,500 -3,900 Descending Minneapolis Center
10:05PM 40.7631 -97.6167 99° East 410 472 17,900 -3,960 Descending Minneapolis Center
10:06PM 40.7883 -97.5744 52° Northeast 409 471 16,500 -3,660 Descending Minneapolis Center
10:06PM 40.7761 -97.4672 99° East 417 480 14,200 -3,480 Descending Minneapolis Center
10:07PM 40.8017 -97.4228 53° Northeast 415 478 13,000 -3,240 Descending Minneapolis Center
10:07PM 40.8058 -97.3186 87° East 379 436 11,000 -2,580 Descending Minneapolis Center
10:08PM 40.8328 -97.2875 41° Northeast 377 434 10,400 -1,500 Descending Minneapolis Center
10:08PM 40.8331 -97.2061 90° East 303 349 9,500 -1,500 Descending Minneapolis Center
10:09PM 40.8575 -97.1806 38° Northeast 315 362 8,900 -1,800 Descending Minneapolis Center
10:09PM 40.8564 -97.0992 91° East 277 319 7,500 -1,920 Descending Minneapolis Center
10:10PM 40.8767 -97.0814 34° Northeast 284 327 7,000 -1,800 Descending Minneapolis Center
10:10PM 40.8764 -97.0092 90° East 278 320 5,900 -1,920 Descending Minneapolis Center
10:11PM 40.9025 -96.9656 52° Northeast 276 318 5,100 -1,500 Descending Minneapolis Center
10:11PM 40.8983 -96.9161 96° East 261 300 4,400 -1,500 Descending Minneapolis Center
10:12PM 40.9264 -96.8794 45° Northeast 260 299 3,600 -1,440 Descending Minneapolis Center
10:12PM 40.9333 -96.8383 77° East 227 261 3,000 -720 Descending Minneapolis Center
10:13PM 40.9536 -96.8106 46° Northeast 233 268 2,900 -120 Descending Minneapolis Center
10:13PM 40.9358 -96.7744 123° Southeast 166 191 2,900 -300 Level Minneapolis Center
10:14PM 40.9314 -96.7639 119° Southeast 185 213 2,600 -720 Descending Minneapolis Center
10:14PM 40.8994 -96.7589 173° South 128 147 2,200 -840 Descending Minneapolis Center
10:15PM 40.8944 -96.7603 192° South 152 175 1,800 -720 Descending Minneapolis Center
10:15PM 40.8639 -96.7572 176° South 139 160 1,500 -240 Descending Minneapolis Center
10:16PM 40.8606 -96.7606 217° Southwest 145 167 1,600  Climbing Minneapolis Center
10:18PM 40.8666 -96.9673 263° West  Level FlightAware Approximate
10:25PM 40.7045 -97.8653 252° West  Level FlightAware Approximate
10:26PM 40.6751 -97.9915 255° West  Level FlightAware Approximate
10:27PM 40.6496 -98.1191 255° West  Level FlightAware Approximate
10:28PM 40.6261 -98.2474 259° West  Level FlightAware Approximate
10:29PM 40.6062 -98.3766 259° West  Level FlightAware Approximate
10:30PM 40.6026 -98.5075 278° West  Level FlightAware Approximate
10:31PM 40.6164 -98.6381 278° West  Level FlightAware Approximate
10:32PM 40.6301 -98.7688 278° West  Level FlightAware Approximate
10:33PM 40.6333 -98.9005 270° West  Level FlightAware Approximate
10:34PM 40.6500 -99.0278 270° West  Level FlightAware Approximate
10:35PM 40.6538 -99.1596 277° West  Level FlightAware Approximate
10:36PM 40.6653 -99.2907 277° West  Level FlightAware Approximate
10:37PM 40.6766 -99.4219 277° West  Level FlightAware Approximate
10:38PM 40.6872 -99.5532 275° West  Level FlightAware Approximate
10:39PM 40.6966 -99.6847 275° West  Level FlightAware Approximate
10:40PM 40.7183 -99.8119 274° West  Level FlightAware Approximate
10:41PM 40.7257 -99.9436 274° West  Level FlightAware Approximate
10:42PM 40.7329 -100.0754 274° West  Level FlightAware Approximate
10:43PM 40.7445 -100.2067 277° West  Level FlightAware Approximate
10:44PM 40.7561 -100.3380 277° West  Level FlightAware Approximate
10:45PM 40.7677 -100.4693 277° West  Level FlightAware Approximate
10:46PM 40.7791 -100.6007 277° West  Level FlightAware Approximate
10:47PM 40.7688 -100.7304 257° West  Level FlightAware Approximate
10:48PM 40.7455 -100.8589 257° West  Level FlightAware Approximate
10:49PM 40.7220 -100.9874 256° West  Level FlightAware Approximate
10:50PM 40.6982 -101.1157 256° West  Level FlightAware Approximate
10:51PM 40.6741 -101.2439 256° West  Level FlightAware Approximate
10:52PM 40.6501 -101.3720 256° West  Level FlightAware Approximate
10:53PM 40.6261 -101.5002 256° West  Level FlightAware Approximate
10:54PM 40.6094 -101.6300 263° West  Level FlightAware Approximate
10:55PM 40.5947 -101.7602 255° West  Level FlightAware Approximate
10:56PM 40.5694 -101.8878 255° West  Level FlightAware Approximate
10:57PM 40.5439 -102.0153 255° West  Level FlightAware Approximate
10:58PM 40.5147 -102.1352 346° North  Level Estimated
10:59PM 40.4253 -102.1801 201° Southwest  Level FlightAware Approximate
11:00PM 40.3358 -102.2248 201° Southwest  Level FlightAware Approximate
11:01PM 40.2463 -102.2694 201° Southwest  Level FlightAware Approximate
11:02PM 40.1568 -102.3139 201° Southwest  Level FlightAware Approximate
11:03PM 40.0673 -102.3583 201° Southwest  Level FlightAware Approximate
11:04PM 39.9778 -102.4025 201° Southwest  Level FlightAware Approximate
11:05PM 39.8882 -102.4467 201° Southwest  Level FlightAware Approximate
11:06PM 39.7987 -102.4907 201° Southwest  Level FlightAware Approximate
11:07PM 39.8034 -102.6152 313° West  Level Estimated
11:08PM 39.7180 -102.6717 207° Southwest  Level FlightAware Approximate
11:09PM 39.6327 -102.7280 207° Southwest  Level FlightAware Approximate
11:10PM 39.6481 -102.8507 314° West  Level Estimated
11:11PM 39.6634 -102.9734 322° Northwest  Level Estimated
11:12PM 39.6786 -103.0962 312° West  Level Estimated
11:13PM 39.6057 -103.1767 220° Southwest  Level FlightAware Approximate
11:14PM 39.5326 -103.2570 220° Southwest  Level FlightAware Approximate
11:15PM 39.4993 -103.2935 220° Southwest  Level FlightAware Approximate
11:16PM 39.5137 -103.3469 314° West  Level Estimated
11:17PM 39.5281 -103.4003 293° West  Level Estimated
11:18PM 39.5424 -103.4538 318° Northwest  Level Estimated
11:19PM 39.5174 -103.5001 235° Southwest  Level FlightAware Approximate
11:19PM 40.8075 -96.7575 240° Southwest 154 177 2,200  Level Minneapolis Center
11:20PM 39.4923 -103.5463 235° Southwest  Level FlightAware Approximate
11:20PM 40.7681 -96.8000 219° Southwest 207 238 3,900  Level Minneapolis Center
11:20PM 40.7617 -96.8319 255° West 193 222 5,000 1,860 Climbing Minneapolis Center
11:21PM 39.4660 -103.5947 235° Southwest  Level FlightAware Approximate
11:21PM 40.7344 -96.8667 224° Southwest 250 288 5,800  Level Minneapolis Center
11:21PM 40.7369 -96.9169 274° West 240 276 6,800 1,860 Climbing Minneapolis Center
11:22PM 39.4859 -103.6480 322° Northwest  Level Estimated
11:22PM 40.7147 -97.0089 252° West 258 297 8,700  Level Minneapolis Center
11:23PM 39.5057 -103.7013 322° Northwest  Level Estimated
11:23PM 40.6894 -97.1017 250° West 265 305 10,300  Level Minneapolis Center
11:24PM 39.4831 -103.7528 240° Southwest  Level FlightAware Approximate
11:24PM 40.6636 -97.2031 251° West 282 325 11,100  Level Minneapolis Center
11:25PM 40.6339 -97.3164 251° West 314 361 12,000 960 Climbing Minneapolis Center
11:26PM 40.6003 -97.4403 250° West 335 386 13,100 1,080 Climbing Minneapolis Center
11:27PM 40.5706 -97.5594 252° West 341 392 14,200 1,080 Climbing Minneapolis Center
11:28PM 40.5389 -97.6786 251° West 343 395 15,300 1,080 Climbing Minneapolis Center
11:29PM 40.5064 -97.7983 250° West 346 398 16,400 1,020 Climbing Minneapolis Center
11:30PM 40.4744 -97.9217 251° West 352 405 17,400 1,080 Climbing Minneapolis Center
11:32PM 40.4408 -98.0453 250° West 356 410 18,600 1,080 Climbing Minneapolis Center
11:33PM 40.4075 -98.1686 250° West 357 411 19,600 960 Climbing Minneapolis Center
11:34PM 40.3731 -98.2931 250° West 360 414 20,600 900 Climbing Minneapolis Center
11:35PM 40.3394 -98.4194 251° West 364 419 21,500 900 Climbing Minneapolis Center
11:36PM 40.3047 -98.5475 250° West 369 425 22,500 960 Climbing Minneapolis Center
11:37PM 40.2689 -98.6756 250° West 371 427 23,500 960 Climbing Minneapolis Center
11:38PM 40.2342 -98.8028 250° West 371 427 24,500 900 Climbing Minneapolis Center
11:39PM 40.1986 -98.9306 250° West 371 427 25,400 900 Climbing Minneapolis Center
11:40PM 40.1639 -99.0581 250° West 372 428 26,400 1,020 Climbing Minneapolis Center
11:41PM 40.1275 -99.1836 249° West 369 425 27,500 1,020 Climbing Minneapolis Center
11:42PM 40.0933 -99.3083 250° West 367 422 28,500 1,020 Climbing Minneapolis Center
11:43PM 40.0511 -99.4561 250° West 363 418 29,600 960 Climbing Minneapolis Center
11:44PM 40.0156 -99.5789 249° West 362 417 30,500 900 Climbing Minneapolis Center
11:45PM 39.9806 -99.7022 250° West 361 415 31,500 1,020 Climbing Minneapolis Center
11:46PM 39.9461 -99.8233 250° West 359 413 32,600 1,080 Climbing Minneapolis Center
11:47PM 39.9114 -99.9439 249° West 356 410 33,700 660 Climbing Minneapolis Center
11:48PM 39.8764 -100.0658 250° West 357 411 34,000 120 Climbing Minneapolis Center
11:49PM 39.8394 -100.1933 249° West 365 420 34,000  Level Minneapolis Center
11:50PM 39.7983 -100.3278 248° West 381 438 34,000 480 Level Minneapolis Center
11:51PM 39.7500 -100.4931 249° West 404 465 35,100 840 Climbing Denver Center
11:52PM 39.7119 -100.6217 249° West 400 460 36,000 420 Climbing Denver Center
11:53PM 39.6678 -100.7669 248° West 391 450 36,000  Level Denver Center
11:54PM 39.6308 -100.8942 249° West 392 451 36,000  Level Denver Center
11:55PM 39.5928 -101.0200 249° West 391 450 36,000  Level Denver Center
11:56PM 39.5486 -101.1678 249° West 394 453 36,000  Level Denver Center
11:57PM 39.5106 -101.2936 249° West 393 452 36,000  Level Denver Center
11:58PM 39.4647 -101.4406 248° West 393 452 36,000  Level Denver Center
11:59PM 39.4261 -101.5672 248° West 396 456 36,000  Level Denver Center
12:00AM 39.3769 -101.6864 242° Southwest 398 458 36,000 -180 Level Denver Center
12:01AM 39.2764 -101.7583 209° Southwest 394 453 35,700 -600 Descending Denver Center
12:02AM 39.1814 -101.8161 205° Southwest 396 456 34,800 -840 Descending Denver Center
12:03AM 39.0903 -101.9197 221° Southwest 402 463 34,000 -420 Descending Denver Center
12:04AM 39.0361 -102.0406 240° Southwest 407 468 34,000  Level Denver Center
12:05AM 38.9733 -102.1778 240° Southwest 400 460 34,000  Level Denver Center
12:06AM 38.9097 -102.3133 239° Southwest 398 458 34,000 -300 Level Denver Center
12:07AM 38.8681 -102.4581 250° West 398 458 33,500 -840 Descending Denver Center
12:08AM 38.8911 -102.5967 282° West 416 479 32,300 -1,200 Descending Denver Center
12:09AM 38.9131 -102.7150 283° West 426 490 31,100 -1,080 Descending Denver Center
12:11AM 38.9453 -102.9097 282° West 435 501 30,000 -1,080 Descending Denver Center
12:12AM 38.9778 -103.0981 283° West 449 517 28,800 -1,200 Descending Denver Center
12:13AM 39.0053 -103.2572 283° West 455 524 27,400 -840 Descending Denver Center
12:14AM 39.0383 -103.4481 253° West 456 525 27,000 -240 Descending Denver Center
12:15AM 39.0639 -103.6081 282° West 459 528 27,000 -900 Level Denver Center
12:16AM 39.0908 -103.7669 282° West 455 524 25,200 -2,040 Descending Denver Center
12:17AM 39.1175 -103.9150 283° West 431 496 22,900 -2,160 Descending Denver Center
12:18AM 39.1900 -104.0231 311° West 402 463 20,900 -1,920 Descending Denver Center
12:19AM 39.2622 -104.1364 309° West 368 423 18,700 -2,160 Descending Denver Center
12:20AM 39.2933 -104.2683 287° West 333 383 16,200 -2,040 Descending Denver Center
12:21AM 39.3194 -104.3886 286° West 324 373 14,600 -1,320 Descending Denver Center
12:22AM 39.3419 -104.4883 286° West 295 339 13,600 -1,140 Descending Denver Center
12:23AM 39.3697 -104.5756 292° West 275 316 12,300 -1,200 Descending Denver Center
12:24AM 39.4211 -104.6114 332° Northwest 276 318 11,300 -1,440 Descending Denver Center
12:25AM 39.5067 -104.6553 338° Northwest 270 311 9,400 -1,200 Descending Denver Center
12:26AM 39.5756 -104.6650 354° North 242 278 8,900 -300 Descending Denver Center
12:27AM 39.6403 -104.6631 North 219 252 8,900 -540 Level Denver Center
12:29AM 39.7094 -104.6633 360° North 203 234 7,600 -420 Descending Denver Center
12:30AM 39.7017 -104.7311 262° West 216 249 8,000 180 Climbing Denver Center
12:31AM 39.6900 -104.6756 105° East 215 247 8,000 -480 Level Denver Center
12:32AM 39.7394 -104.6617 12° North 186 214 7,100 -900 Descending Denver Center
12:33AM 39.7867 -104.6608 North 172 198 6,200 -900 Descending Denver Center
12:34AM 39.8364 -104.6606 263° West 179 206 5,300 -900 Descending Denver Center